sensor_id;sensor_type;location;lat;lon;timestamp;P1;durP1;ratioP1;P2;durP2;ratioP2
31906;SDS011;18455;50.858;13.662;2023-04-15T00:03:30;1.60;;;1.50;;
31906;SDS011;18455;50.858;13.662;2023-04-15T00:08:33;1.53;;;1.23;;
31906;SDS011;18455;50.858;13.662;2023-04-15T00:13:33;1.80;;;1.70;;
31906;SDS011;18455;50.858;13.662;2023-04-15T00:18:34;1.57;;;1.47;;
31906;SDS011;18455;50.858;13.662;2023-04-15T00:23:34;3.80;;;1.77;;
31906;SDS011;18455;50.858;13.662;2023-04-15T00:28:35;1.80;;;1.70;;
31906;SDS011;18455;50.858;13.662;2023-04-15T00:33:36;1.80;;;1.70;;
31906;SDS011;18455;50.858;13.662;2023-04-15T00:38:37;1.67;;;1.57;;
31906;SDS011;18455;50.858;13.662;2023-04-15T00:43:38;1.50;;;1.40;;
31906;SDS011;18455;50.858;13.662;2023-04-15T00:48:38;1.73;;;1.63;;
31906;SDS011;18455;50.858;13.662;2023-04-15T00:53:39;1.60;;;1.50;;
31906;SDS011;18455;50.858;13.662;2023-04-15T00:58:40;1.60;;;1.50;;
31906;SDS011;18455;50.858;13.662;2023-04-15T01:03:40;1.53;;;1.40;;
31906;SDS011;18455;50.858;13.662;2023-04-15T01:08:41;1.60;;;1.50;;
31906;SDS011;18455;50.858;13.662;2023-04-15T01:13:42;1.50;;;1.40;;
31906;SDS011;18455;50.858;13.662;2023-04-15T01:18:42;1.47;;;1.37;;
31906;SDS011;18455;50.858;13.662;2023-04-15T01:23:43;1.43;;;1.33;;
31906;SDS011;18455;50.858;13.662;2023-04-15T01:28:43;1.40;;;1.30;;
31906;SDS011;18455;50.858;13.662;2023-04-15T01:33:44;1.57;;;1.40;;
31906;SDS011;18455;50.858;13.662;2023-04-15T01:38:48;1.67;;;1.57;;
31906;SDS011;18455;50.858;13.662;2023-04-15T01:43:48;1.83;;;1.73;;
31906;SDS011;18455;50.858;13.662;2023-04-15T01:48:48;1.93;;;1.73;;
31906;SDS011;18455;50.858;13.662;2023-04-15T01:53:49;1.80;;;1.70;;
31906;SDS011;18455;50.858;13.662;2023-04-15T01:58:50;2.10;;;1.97;;
31906;SDS011;18455;50.858;13.662;2023-04-15T02:03:50;1.80;;;1.70;;
31906;SDS011;18455;50.858;13.662;2023-04-15T02:08:51;1.60;;;1.50;;
31906;SDS011;18455;50.858;13.662;2023-04-15T02:13:51;1.57;;;1.40;;
31906;SDS011;18455;50.858;13.662;2023-04-15T02:18:51;1.90;;;1.70;;
31906;SDS011;18455;50.858;13.662;2023-04-15T02:23:52;1.60;;;1.50;;
31906;SDS011;18455;50.858;13.662;2023-04-15T02:28:55;1.80;;;1.70;;
31906;SDS011;18455;50.858;13.662;2023-04-15T02:33:55;2.67;;;1.93;;
31906;SDS011;18455;50.858;13.662;2023-04-15T02:38:56;2.13;;;1.93;;
31906;SDS011;18455;50.858;13.662;2023-04-15T02:43:56;1.60;;;1.50;;
31906;SDS011;18455;50.858;13.662;2023-04-15T02:48:57;1.73;;;1.60;;
31906;SDS011;18455;50.858;13.662;2023-04-15T02:53:58;1.40;;;1.30;;
31906;SDS011;18455;50.858;13.662;2023-04-15T02:58:59;1.93;;;1.70;;
31906;SDS011;18455;50.858;13.662;2023-04-15T03:03:59;1.60;;;1.50;;
31906;SDS011;18455;50.858;13.662;2023-04-15T03:09:00;1.63;;;1.53;;
31906;SDS011;18455;50.858;13.662;2023-04-15T03:14:03;1.70;;;1.60;;
31906;SDS011;18455;50.858;13.662;2023-04-15T03:19:08;1.60;;;1.50;;
31906;SDS011;18455;50.858;13.662;2023-04-15T03:24:08;1.57;;;1.30;;
31906;SDS011;18455;50.858;13.662;2023-04-15T03:29:09;1.80;;;1.70;;
31906;SDS011;18455;50.858;13.662;2023-04-15T03:34:10;1.50;;;1.40;;
31906;SDS011;18455;50.858;13.662;2023-04-15T03:39:10;1.80;;;1.60;;
31906;SDS011;18455;50.858;13.662;2023-04-15T03:44:11;2.07;;;1.77;;
31906;SDS011;18455;50.858;13.662;2023-04-15T03:49:12;2.17;;;2.00;;
31906;SDS011;18455;50.858;13.662;2023-04-15T03:54:12;2.17;;;1.97;;
31906;SDS011;18455;50.858;13.662;2023-04-15T03:59:14;2.30;;;2.10;;
31906;SDS011;18455;50.858;13.662;2023-04-15T04:04:14;2.20;;;2.00;;
31906;SDS011;18455;50.858;13.662;2023-04-15T04:09:15;1.60;;;1.50;;
31906;SDS011;18455;50.858;13.662;2023-04-15T04:14:15;1.70;;;1.60;;
31906;SDS011;18455;50.858;13.662;2023-04-15T04:19:16;1.57;;;1.47;;
31906;SDS011;18455;50.858;13.662;2023-04-15T04:24:18;1.67;;;1.57;;
31906;SDS011;18455;50.858;13.662;2023-04-15T04:29:19;1.40;;;1.30;;
31906;SDS011;18455;50.858;13.662;2023-04-15T04:34:19;1.27;;;0.90;;
31906;SDS011;18455;50.858;13.662;2023-04-15T04:39:20;0.80;;;0.80;;
31906;SDS011;18455;50.858;13.662;2023-04-15T04:44:20;0.90;;;0.90;;
31906;SDS011;18455;50.858;13.662;2023-04-15T04:49:21;0.70;;;0.70;;
31906;SDS011;18455;50.858;13.662;2023-04-15T04:54:21;0.80;;;0.80;;
31906;SDS011;18455;50.858;13.662;2023-04-15T04:59:22;0.70;;;0.70;;
31906;SDS011;18455;50.858;13.662;2023-04-15T05:04:23;0.90;;;0.90;;
31906;SDS011;18455;50.858;13.662;2023-04-15T05:09:23;0.73;;;0.73;;
31906;SDS011;18455;50.858;13.662;2023-04-15T05:14:24;0.60;;;0.60;;
31906;SDS011;18455;50.858;13.662;2023-04-15T05:19:24;1.67;;;0.80;;
31906;SDS011;18455;50.858;13.662;2023-04-15T05:24:24;0.63;;;0.63;;
31906;SDS011;18455;50.858;13.662;2023-04-15T05:29:25;1.63;;;1.53;;
31906;SDS011;18455;50.858;13.662;2023-04-15T05:34:25;0.90;;;0.90;;
31906;SDS011;18455;50.858;13.662;2023-04-15T05:39:25;1.97;;;0.87;;
31906;SDS011;18455;50.858;13.662;2023-04-15T05:44:26;4.40;;;3.50;;
31906;SDS011;18455;50.858;13.662;2023-04-15T05:49:26;49.83;;;30.17;;
31906;SDS011;18455;50.858;13.662;2023-04-15T05:54:27;1.67;;;1.57;;
31906;SDS011;18455;50.858;13.662;2023-04-15T05:59:27;1.60;;;1.50;;
31906;SDS011;18455;50.858;13.662;2023-04-15T06:04:27;1.53;;;1.43;;
31906;SDS011;18455;50.858;13.662;2023-04-15T06:09:28;1.90;;;1.53;;
31906;SDS011;18455;50.858;13.662;2023-04-15T06:14:28;1.30;;;1.20;;
31906;SDS011;18455;50.858;13.662;2023-04-15T06:19:28;3.13;;;2.83;;
31906;SDS011;18455;50.858;13.662;2023-04-15T06:24:29;1.27;;;1.00;;
31906;SDS011;18455;50.858;13.662;2023-04-15T06:29:30;1.83;;;1.47;;
31906;SDS011;18455;50.858;13.662;2023-04-15T06:34:30;1.00;;;1.00;;
31906;SDS011;18455;50.858;13.662;2023-04-15T06:39:31;1.00;;;0.97;;
31906;SDS011;18455;50.858;13.662;2023-04-15T06:44:31;2.00;;;1.47;;
31906;SDS011;18455;50.858;13.662;2023-04-15T06:49:32;2.00;;;1.57;;
31906;SDS011;18455;50.858;13.662;2023-04-15T06:54:32;1.33;;;1.23;;
31906;SDS011;18455;50.858;13.662;2023-04-15T06:59:33;1.27;;;1.17;;
31906;SDS011;18455;50.858;13.662;2023-04-15T07:04:33;1.10;;;1.00;;
31906;SDS011;18455;50.858;13.662;2023-04-15T07:09:33;1.60;;;0.97;;
31906;SDS011;18455;50.858;13.662;2023-04-15T07:14:34;1.00;;;1.00;;
31906;SDS011;18455;50.858;13.662;2023-04-15T07:19:35;21.30;;;12.57;;
31906;SDS011;18455;50.858;13.662;2023-04-15T07:24:36;64.37;;;29.20;;
31906;SDS011;18455;50.858;13.662;2023-04-15T07:29:36;0.63;;;0.63;;
31906;SDS011;18455;50.858;13.662;2023-04-15T07:34:36;0.77;;;0.77;;
31906;SDS011;18455;50.858;13.662;2023-04-15T07:39:37;1.50;;;1.40;;
31906;SDS011;18455;50.858;13.662;2023-04-15T07:44:37;1.33;;;0.90;;
31906;SDS011;18455;50.858;13.662;2023-04-15T07:49:37;3.50;;;0.93;;
31906;SDS011;18455;50.858;13.662;2023-04-15T07:54:38;1.20;;;1.10;;
31906;SDS011;18455;50.858;13.662;2023-04-15T07:59:38;0.77;;;0.77;;
31906;SDS011;18455;50.858;13.662;2023-04-15T08:04:39;1.27;;;1.17;;
31906;SDS011;18455;50.858;13.662;2023-04-15T08:09:39;1.63;;;1.07;;
31906;SDS011;18455;50.858;13.662;2023-04-15T08:14:40;2.60;;;1.70;;
31906;SDS011;18455;50.858;13.662;2023-04-15T08:19:40;2.90;;;2.60;;
31906;SDS011;18455;50.858;13.662;2023-04-15T08:24:41;4.37;;;1.47;;
31906;SDS011;18455;50.858;13.662;2023-04-15T08:29:41;1.87;;;1.77;;
31906;SDS011;18455;50.858;13.662;2023-04-15T08:34:42;1.17;;;1.07;;
31906;SDS011;18455;50.858;13.662;2023-04-15T08:39:42;1.30;;;1.03;;
31906;SDS011;18455;50.858;13.662;2023-04-15T08:44:44;1.40;;;1.30;;
31906;SDS011;18455;50.858;13.662;2023-04-15T08:49:45;0.90;;;0.90;;
31906;SDS011;18455;50.858;13.662;2023-04-15T08:54:47;2.00;;;1.90;;
31906;SDS011;18455;50.858;13.662;2023-04-15T08:59:47;2.77;;;1.30;;
31906;SDS011;18455;50.858;13.662;2023-04-15T09:04:48;3.47;;;2.30;;
31906;SDS011;18455;50.858;13.662;2023-04-15T09:09:48;3.90;;;3.07;;
31906;SDS011;18455;50.858;13.662;2023-04-15T09:14:50;1.40;;;1.30;;
31906;SDS011;18455;50.858;13.662;2023-04-15T09:20:06;1.70;;;1.60;;
31906;SDS011;18455;50.858;13.662;2023-04-15T09:30:13;2.87;;;1.97;;
31906;SDS011;18455;50.858;13.662;2023-04-15T09:35:14;4.67;;;3.50;;
31906;SDS011;18455;50.858;13.662;2023-04-15T09:40:29;1.90;;;1.80;;
31906;SDS011;18455;50.858;13.662;2023-04-15T09:45:32;1.93;;;1.60;;
31906;SDS011;18455;50.858;13.662;2023-04-15T09:50:33;3.30;;;1.63;;
31906;SDS011;18455;50.858;13.662;2023-04-15T09:55:42;2.30;;;1.80;;
31906;SDS011;18455;50.858;13.662;2023-04-15T10:00:45;2.10;;;2.00;;
31906;SDS011;18455;50.858;13.662;2023-04-15T10:05:50;1.97;;;1.87;;
31906;SDS011;18455;50.858;13.662;2023-04-15T10:10:52;2.67;;;2.47;;
31906;SDS011;18455;50.858;13.662;2023-04-15T10:15:56;2.20;;;2.00;;
31906;SDS011;18455;50.858;13.662;2023-04-15T10:20:58;3.60;;;3.10;;
31906;SDS011;18455;50.858;13.662;2023-04-15T10:26:00;2.10;;;1.90;;
31906;SDS011;18455;50.858;13.662;2023-04-15T10:31:02;3.93;;;3.37;;
31906;SDS011;18455;50.858;13.662;2023-04-15T10:36:04;3.00;;;2.40;;
31906;SDS011;18455;50.858;13.662;2023-04-15T10:46:23;2.63;;;2.43;;
31906;SDS011;18455;50.858;13.662;2023-04-15T10:51:37;2.73;;;2.43;;
31906;SDS011;18455;50.858;13.662;2023-04-15T10:56:42;2.73;;;2.30;;
31906;SDS011;18455;50.858;13.662;2023-04-15T11:02:16;2.97;;;2.27;;
31906;SDS011;18455;50.858;13.662;2023-04-15T11:07:11;2.30;;;2.07;;
31906;SDS011;18455;50.858;13.662;2023-04-15T11:12:11;3.00;;;2.70;;
31906;SDS011;18455;50.858;13.662;2023-04-15T11:17:12;3.40;;;2.10;;
31906;SDS011;18455;50.858;13.662;2023-04-15T11:22:12;2.50;;;2.30;;
31906;SDS011;18455;50.858;13.662;2023-04-15T11:27:20;2.43;;;2.23;;
31906;SDS011;18455;50.858;13.662;2023-04-15T11:32:21;2.43;;;2.20;;
31906;SDS011;18455;50.858;13.662;2023-04-15T11:37:26;2.83;;;2.40;;
31906;SDS011;18455;50.858;13.662;2023-04-15T11:42:28;2.70;;;2.33;;
31906;SDS011;18455;50.858;13.662;2023-04-15T11:47:28;3.27;;;2.97;;
31906;SDS011;18455;50.858;13.662;2023-04-15T11:52:28;2.90;;;2.53;;
31906;SDS011;18455;50.858;13.662;2023-04-15T11:57:33;3.20;;;2.90;;
31906;SDS011;18455;50.858;13.662;2023-04-15T12:02:35;3.60;;;3.30;;
31906;SDS011;18455;50.858;13.662;2023-04-15T12:12:58;3.20;;;2.53;;
31906;SDS011;18455;50.858;13.662;2023-04-15T12:17:59;4.27;;;3.20;;
31906;SDS011;18455;50.858;13.662;2023-04-15T12:23:05;3.50;;;2.47;;
31906;SDS011;18455;50.858;13.662;2023-04-15T12:28:09;2.30;;;2.10;;
31906;SDS011;18455;50.858;13.662;2023-04-15T12:33:10;3.57;;;2.80;;
31906;SDS011;18455;50.858;13.662;2023-04-15T12:38:11;2.50;;;2.30;;
31906;SDS011;18455;50.858;13.662;2023-04-15T12:43:11;3.30;;;2.57;;
31906;SDS011;18455;50.858;13.662;2023-04-15T12:48:11;2.67;;;2.40;;
31906;SDS011;18455;50.858;13.662;2023-04-15T12:53:12;2.80;;;2.50;;
31906;SDS011;18455;50.858;13.662;2023-04-15T12:59:15;2.53;;;2.30;;
31906;SDS011;18455;50.858;13.662;2023-04-15T13:04:20;2.20;;;2.00;;
31906;SDS011;18455;50.858;13.662;2023-04-15T13:09:21;4.63;;;2.83;;
31906;SDS011;18455;50.858;13.662;2023-04-15T13:14:22;3.27;;;2.60;;
31906;SDS011;18455;50.858;13.662;2023-04-15T13:19:24;2.93;;;2.47;;
31906;SDS011;18455;50.858;13.662;2023-04-15T13:24:25;4.03;;;2.70;;
31906;SDS011;18455;50.858;13.662;2023-04-15T13:29:25;2.37;;;2.17;;
31906;SDS011;18455;50.858;13.662;2023-04-15T13:34:29;3.30;;;2.90;;
31906;SDS011;18455;50.858;13.662;2023-04-15T13:39:32;3.20;;;2.83;;
31906;SDS011;18455;50.858;13.662;2023-04-15T13:44:33;2.80;;;2.60;;
31906;SDS011;18455;50.858;13.662;2023-04-15T13:49:34;2.47;;;2.23;;
31906;SDS011;18455;50.858;13.662;2023-04-15T13:54:34;3.30;;;2.43;;
31906;SDS011;18455;50.858;13.662;2023-04-15T13:59:36;2.73;;;2.47;;
31906;SDS011;18455;50.858;13.662;2023-04-15T14:04:36;2.87;;;2.40;;
31906;SDS011;18455;50.858;13.662;2023-04-15T14:09:36;2.97;;;2.40;;
31906;SDS011;18455;50.858;13.662;2023-04-15T14:14:37;16.23;;;10.40;;
31906;SDS011;18455;50.858;13.662;2023-04-15T14:19:37;3.07;;;2.60;;
31906;SDS011;18455;50.858;13.662;2023-04-15T14:24:37;2.77;;;2.47;;
31906;SDS011;18455;50.858;13.662;2023-04-15T14:29:38;3.90;;;3.50;;
31906;SDS011;18455;50.858;13.662;2023-04-15T14:34:38;5.03;;;4.10;;
31906;SDS011;18455;50.858;13.662;2023-04-15T14:39:39;4.20;;;3.60;;
31906;SDS011;18455;50.858;13.662;2023-04-15T14:44:39;4.53;;;3.70;;
31906;SDS011;18455;50.858;13.662;2023-04-15T14:49:40;4.73;;;3.83;;
31906;SDS011;18455;50.858;13.662;2023-04-15T14:54:40;4.30;;;3.03;;
31906;SDS011;18455;50.858;13.662;2023-04-15T14:59:41;3.60;;;3.10;;
31906;SDS011;18455;50.858;13.662;2023-04-15T15:04:41;2.60;;;2.40;;
31906;SDS011;18455;50.858;13.662;2023-04-15T15:09:41;3.55;;;2.95;;
31906;SDS011;18455;50.858;13.662;2023-04-15T15:14:42;3.63;;;2.83;;
31906;SDS011;18455;50.858;13.662;2023-04-15T15:24:53;2.50;;;2.30;;
31906;SDS011;18455;50.858;13.662;2023-04-15T15:29:54;2.78;;;2.15;;
31906;SDS011;18455;50.858;13.662;2023-04-15T15:34:55;2.60;;;2.40;;
31906;SDS011;18455;50.858;13.662;2023-04-15T15:39:55;3.08;;;2.78;;
31906;SDS011;18455;50.858;13.662;2023-04-15T15:44:56;4.32;;;2.60;;
31906;SDS011;18455;50.858;13.662;2023-04-15T15:49:56;3.28;;;2.97;;
31906;SDS011;18455;50.858;13.662;2023-04-15T15:54:57;3.10;;;2.80;;
31906;SDS011;18455;50.858;13.662;2023-04-15T15:59:57;2.67;;;2.47;;
31906;SDS011;18455;50.858;13.662;2023-04-15T16:04:57;3.30;;;2.80;;
31906;SDS011;18455;50.858;13.662;2023-04-15T16:09:58;4.28;;;3.10;;
31906;SDS011;18455;50.858;13.662;2023-04-15T16:14:58;5.78;;;4.63;;
31906;SDS011;18455;50.858;13.662;2023-04-15T16:19:58;7.18;;;5.18;;
31906;SDS011;18455;50.858;13.662;2023-04-15T16:24:59;2.95;;;2.67;;
31906;SDS011;18455;50.858;13.662;2023-04-15T16:30:00;3.00;;;2.70;;
31906;SDS011;18455;50.858;13.662;2023-04-15T16:35:01;3.27;;;2.93;;
31906;SDS011;18455;50.858;13.662;2023-04-15T16:40:02;4.37;;;2.97;;
31906;SDS011;18455;50.858;13.662;2023-04-15T16:45:03;3.77;;;3.43;;
31906;SDS011;18455;50.858;13.662;2023-04-15T16:50:04;3.70;;;3.30;;
31906;SDS011;18455;50.858;13.662;2023-04-15T16:55:04;3.07;;;2.77;;
31906;SDS011;18455;50.858;13.662;2023-04-15T17:00:05;3.40;;;3.10;;
31906;SDS011;18455;50.858;13.662;2023-04-15T17:05:06;3.47;;;3.17;;
31906;SDS011;18455;50.858;13.662;2023-04-15T17:10:07;3.20;;;2.77;;
31906;SDS011;18455;50.858;13.662;2023-04-15T17:15:08;8.57;;;5.17;;
31906;SDS011;18455;50.858;13.662;2023-04-15T17:20:09;18.13;;;13.47;;
31906;SDS011;18455;50.858;13.662;2023-04-15T17:25:12;3.00;;;2.80;;
31906;SDS011;18455;50.858;13.662;2023-04-15T17:30:12;4.23;;;3.83;;
31906;SDS011;18455;50.858;13.662;2023-04-15T17:35:13;6.17;;;4.57;;
31906;SDS011;18455;50.858;13.662;2023-04-15T17:40:13;7.53;;;6.00;;
31906;SDS011;18455;50.858;13.662;2023-04-15T17:45:13;5.90;;;4.67;;
31906;SDS011;18455;50.858;13.662;2023-04-15T17:50:14;4.80;;;4.40;;
31906;SDS011;18455;50.858;13.662;2023-04-15T17:55:14;4.77;;;4.37;;
31906;SDS011;18455;50.858;13.662;2023-04-15T18:00:15;6.60;;;5.43;;
31906;SDS011;18455;50.858;13.662;2023-04-15T18:05:15;7.47;;;6.67;;
31906;SDS011;18455;50.858;13.662;2023-04-15T18:10:17;6.00;;;5.40;;
31906;SDS011;18455;50.858;13.662;2023-04-15T18:15:19;6.90;;;6.20;;
31906;SDS011;18455;50.858;13.662;2023-04-15T18:20:20;7.50;;;6.43;;
31906;SDS011;18455;50.858;13.662;2023-04-15T18:25:20;7.63;;;6.57;;
31906;SDS011;18455;50.858;13.662;2023-04-15T18:30:21;13.13;;;8.90;;
31906;SDS011;18455;50.858;13.662;2023-04-15T18:35:22;12.13;;;8.60;;
31906;SDS011;18455;50.858;13.662;2023-04-15T18:40:23;10.23;;;8.10;;
31906;SDS011;18455;50.858;13.662;2023-04-15T18:45:23;10.13;;;8.30;;
31906;SDS011;18455;50.858;13.662;2023-04-15T18:50:24;10.97;;;9.40;;
31906;SDS011;18455;50.858;13.662;2023-04-15T18:55:24;9.60;;;8.23;;
31906;SDS011;18455;50.858;13.662;2023-04-15T19:00:25;9.33;;;8.13;;
31906;SDS011;18455;50.858;13.662;2023-04-15T19:05:26;13.10;;;9.20;;
31906;SDS011;18455;50.858;13.662;2023-04-15T19:10:26;9.17;;;8.10;;
31906;SDS011;18455;50.858;13.662;2023-04-15T19:15:27;8.63;;;7.67;;
31906;SDS011;18455;50.858;13.662;2023-04-15T19:20:28;9.33;;;8.33;;
31906;SDS011;18455;50.858;13.662;2023-04-15T19:25:29;8.33;;;7.50;;
31906;SDS011;18455;50.858;13.662;2023-04-15T19:30:29;9.53;;;7.73;;
31906;SDS011;18455;50.858;13.662;2023-04-15T19:35:31;9.90;;;8.10;;
31906;SDS011;18455;50.858;13.662;2023-04-15T19:40:32;8.80;;;7.73;;
31906;SDS011;18455;50.858;13.662;2023-04-15T19:45:32;12.23;;;7.40;;
31906;SDS011;18455;50.858;13.662;2023-04-15T19:50:33;9.63;;;8.30;;
31906;SDS011;18455;50.858;13.662;2023-04-15T19:55:33;8.93;;;7.97;;
31906;SDS011;18455;50.858;13.662;2023-04-15T20:00:34;11.13;;;7.40;;
31906;SDS011;18455;50.858;13.662;2023-04-15T20:05:35;8.87;;;7.53;;
31906;SDS011;18455;50.858;13.662;2023-04-15T20:10:35;13.77;;;7.80;;
31906;SDS011;18455;50.858;13.662;2023-04-15T20:15:36;11.23;;;9.30;;
31906;SDS011;18455;50.858;13.662;2023-04-15T20:20:37;13.43;;;8.93;;
31906;SDS011;18455;50.858;13.662;2023-04-15T20:25:38;9.60;;;8.60;;
31906;SDS011;18455;50.858;13.662;2023-04-15T20:30:38;9.90;;;8.90;;
31906;SDS011;18455;50.858;13.662;2023-04-15T20:35:39;11.63;;;9.80;;
31906;SDS011;18455;50.858;13.662;2023-04-15T20:40:39;12.77;;;8.83;;
31906;SDS011;18455;50.858;13.662;2023-04-15T20:45:39;9.17;;;8.10;;
31906;SDS011;18455;50.858;13.662;2023-04-15T20:50:40;10.67;;;8.13;;
31906;SDS011;18455;50.858;13.662;2023-04-15T20:55:40;9.27;;;8.23;;
31906;SDS011;18455;50.858;13.662;2023-04-15T21:00:42;10.03;;;8.93;;
31906;SDS011;18455;50.858;13.662;2023-04-15T21:05:44;14.73;;;8.93;;
31906;SDS011;18455;50.858;13.662;2023-04-15T21:10:44;11.93;;;9.77;;
31906;SDS011;18455;50.858;13.662;2023-04-15T21:15:46;13.13;;;9.57;;
31906;SDS011;18455;50.858;13.662;2023-04-15T21:20:54;10.97;;;9.37;;
31906;SDS011;18455;50.858;13.662;2023-04-15T21:26:03;11.03;;;9.67;;
31906;SDS011;18455;50.858;13.662;2023-04-15T21:31:03;10.07;;;9.00;;
31906;SDS011;18455;50.858;13.662;2023-04-15T21:36:04;11.83;;;9.87;;
31906;SDS011;18455;50.858;13.662;2023-04-15T21:41:04;15.63;;;12.13;;
31906;SDS011;18455;50.858;13.662;2023-04-15T21:46:08;11.97;;;10.00;;
31906;SDS011;18455;50.858;13.662;2023-04-15T21:51:08;14.50;;;9.67;;
31906;SDS011;18455;50.858;13.662;2023-04-15T21:56:09;13.90;;;10.80;;
31906;SDS011;18455;50.858;13.662;2023-04-15T22:01:09;14.20;;;11.97;;
31906;SDS011;18455;50.858;13.662;2023-04-15T22:06:10;14.23;;;11.47;;
31906;SDS011;18455;50.858;13.662;2023-04-15T22:11:17;13.93;;;10.97;;
31906;SDS011;18455;50.858;13.662;2023-04-15T22:16:22;13.03;;;10.83;;
31906;SDS011;18455;50.858;13.662;2023-04-15T22:21:23;12.67;;;9.70;;
31906;SDS011;18455;50.858;13.662;2023-04-15T22:26:23;13.70;;;11.03;;
31906;SDS011;18455;50.858;13.662;2023-04-15T22:31:23;16.23;;;11.27;;
31906;SDS011;18455;50.858;13.662;2023-04-15T22:36:24;13.67;;;10.73;;
31906;SDS011;18455;50.858;13.662;2023-04-15T22:41:25;15.10;;;11.20;;
31906;SDS011;18455;50.858;13.662;2023-04-15T22:46:25;13.27;;;11.03;;
31906;SDS011;18455;50.858;13.662;2023-04-15T22:51:25;12.23;;;10.57;;
31906;SDS011;18455;50.858;13.662;2023-04-15T22:56:27;15.37;;;11.10;;
31906;SDS011;18455;50.858;13.662;2023-04-15T23:01:27;17.30;;;12.20;;
31906;SDS011;18455;50.858;13.662;2023-04-15T23:06:27;15.57;;;12.60;;
31906;SDS011;18455;50.858;13.662;2023-04-15T23:11:28;19.73;;;11.90;;
31906;SDS011;18455;50.858;13.662;2023-04-15T23:16:28;16.23;;;11.80;;
31906;SDS011;18455;50.858;13.662;2023-04-15T23:21:29;14.20;;;11.30;;
31906;SDS011;18455;50.858;13.662;2023-04-15T23:26:30;15.60;;;11.60;;
31906;SDS011;18455;50.858;13.662;2023-04-15T23:31:30;14.77;;;11.57;;
31906;SDS011;18455;50.858;13.662;2023-04-15T23:36:31;12.87;;;10.90;;
31906;SDS011;18455;50.858;13.662;2023-04-15T23:41:31;20.03;;;13.90;;
31906;SDS011;18455;50.858;13.662;2023-04-15T23:46:31;17.57;;;13.37;;
31906;SDS011;18455;50.858;13.662;2023-04-15T23:51:32;18.07;;;13.33;;
31906;SDS011;18455;50.858;13.662;2023-04-15T23:56:32;19.73;;;13.23;;
